»·PEaware :: N24SQ BGBW-CYFB

N24SQ :: BGBW-CYFB

FLIGHT INFORMATION

Flight Status: Arrived
Operator: Privately registered:
United States
More flights under this callsign
Pilot: Gabor H. (24209)
Aircraft: Unknown
(PC24)
More flights by this aircraft type
Origin: BGBW Narsarsuaq
Greenland
Destination: CYFB Iqaluit
Canada
More flights between these airports :: More routes between these airports
Route: NA W65 EVDIR BERUS YFB
File this flight plan on PilotEdge
Remarks: PC24 US FERRY FLIGHT LEG4
Altitude:
(Current/Filed)
40,000ft
Speed:
(Current/Filed)
460kts
Departed: 24-Sep-19 03:42 AM
Arrived: 24-Sep-19 05:18 AM
Distance/Time
Traveled:
656nm/1:36
Distance/Time
To Go:
Arrived

Flight Plot

Page will automatically refresh every two minutes.

Flight plan parsing failed; only flown route is shown


Map Options




Map Legend


Flown Route
Filed Route
Departure Airport
Arrival Airport
Navaid (VOR, NDB)
Fix

Horizontal Profiles

Position Reports

Time Latitude Longitude Heading Altitude Ground
Speed
24-Sep-19 03:35 61.162917 -45.415717 309 117ft 0kts
24-Sep-19 03:36 61.162917 -45.415718 309 117ft 0kts
24-Sep-19 03:37 61.162919 -45.415721 309 117ft 0kts
24-Sep-19 03:38 61.162990 -45.416290 275 117ft 4kts
24-Sep-19 03:39 61.163096 -45.420923 235 117ft 13kts
24-Sep-19 03:40 61.156889 -45.432682 219 117ft 38kts
24-Sep-19 03:40 61.154469 -45.436690 40 117ft 0kts
24-Sep-19 03:41 61.155717 -45.434480 40 117ft 65kts
24-Sep-19 03:43 61.194119 -45.366032 42 3221ft 177kts
24-Sep-19 03:43 61.230082 -45.384053 296 6526ft 222kts
24-Sep-19 03:45 61.228412 -45.552195 267 11266ft 287kts
24-Sep-19 03:45 61.229740 -45.701307 285 14659ft 335kts
24-Sep-19 03:46 61.268784 -45.896506 295 18342ft 390kts
24-Sep-19 03:48 61.322126 -46.137583 293 21851ft 395kts
24-Sep-19 03:48 61.359007 -46.310244 291 24306ft 404kts
24-Sep-19 03:49 61.404342 -46.527945 290 27305ft 409kts
24-Sep-19 03:50 61.449355 -46.747959 289 30300ft 415kts
24-Sep-19 03:51 61.493353 -46.965631 289 33283ft 404kts
24-Sep-19 03:52 61.536508 -47.181944 289 36267ft 399kts
24-Sep-19 03:53 61.578198 -47.393044 289 39210ft 385kts
24-Sep-19 03:54 61.621400 -47.615210 290 39291ft 431kts
24-Sep-19 03:55 61.667712 -47.855797 290 39294ft 453kts
24-Sep-19 03:56 61.715120 -48.104700 289 39300ft 461kts
24-Sep-19 03:57 61.762574 -48.356960 289 39307ft 463kts
24-Sep-19 03:58 61.808808 -48.605980 289 39315ft 464kts
24-Sep-19 03:59 61.855658 -48.861682 289 39323ft 465kts
24-Sep-19 04:00 61.901910 -49.117553 289 39331ft 465kts
24-Sep-19 04:01 61.947727 -49.374363 288 39339ft 465kts
24-Sep-19 04:02 61.992209 -49.632523 286 39347ft 465kts
24-Sep-19 04:03 62.027932 -49.896716 283 39353ft 465kts
24-Sep-19 04:04 62.060714 -50.163051 283 39373ft 465kts
24-Sep-19 04:05 62.092901 -50.430110 283 39381ft 465kts
24-Sep-19 04:06 62.124684 -50.697624 282 39387ft 464kts
24-Sep-19 04:07 62.155993 -50.965320 282 39403ft 464kts
24-Sep-19 04:08 62.186941 -51.234540 282 39408ft 464kts
24-Sep-19 04:09 62.216498 -51.496345 282 39413ft 464kts
24-Sep-19 04:10 62.246301 -51.765308 282 39412ft 464kts
24-Sep-19 04:11 62.275568 -52.034636 282 39412ft 463kts
24-Sep-19 04:12 62.304270 -52.304166 282 39415ft 463kts
24-Sep-19 04:13 62.332477 -52.574268 281 39418ft 463kts
24-Sep-19 04:14 62.360152 -52.844811 281 39421ft 463kts
24-Sep-19 04:15 62.387275 -53.115580 281 39432ft 462kts
24-Sep-19 04:16 62.413966 -53.387858 281 39435ft 462kts
24-Sep-19 04:17 62.440042 -53.659736 280 39437ft 463kts
24-Sep-19 04:18 62.465583 -53.932049 280 39440ft 463kts
24-Sep-19 04:19 62.490576 -54.204843 280 39442ft 462kts
24-Sep-19 04:20 62.515004 -54.477477 280 39445ft 461kts
24-Sep-19 04:21 62.538905 -54.750548 280 39448ft 461kts
24-Sep-19 04:22 62.562251 -55.023836 280 39451ft 461kts
24-Sep-19 04:23 62.585057 -55.297513 279 39454ft 461kts
24-Sep-19 04:24 62.607323 -55.571566 279 39457ft 461kts
24-Sep-19 04:25 62.629127 -55.846972 279 39460ft 461kts
24-Sep-19 04:26 62.650304 -56.121778 279 39513ft 460kts
24-Sep-19 04:27 62.670877 -56.396031 279 39518ft 459kts
24-Sep-19 04:28 62.690905 -56.670383 278 39534ft 459kts
24-Sep-19 04:29 62.710369 -56.944755 278 39539ft 459kts
24-Sep-19 04:30 62.729308 -57.219644 278 39546ft 459kts
24-Sep-19 04:31 62.747691 -57.494684 278 39551ft 458kts
24-Sep-19 04:32 62.765584 -57.770764 278 39556ft 458kts
24-Sep-19 04:33 62.782885 -58.046424 278 39561ft 458kts
24-Sep-19 04:34 62.799605 -58.321804 278 39565ft 457kts
24-Sep-19 04:35 62.815799 -58.597476 277 39569ft 457kts
24-Sep-19 04:36 62.831438 -58.873167 277 39573ft 457kts
24-Sep-19 04:37 62.846535 -59.149170 277 39577ft 457kts
24-Sep-19 04:38 62.861102 -59.425650 277 39598ft 457kts
24-Sep-19 04:39 62.875174 -59.703356 276 39602ft 457kts
24-Sep-19 04:40 62.888654 -59.980373 276 39605ft 457kts
24-Sep-19 04:41 62.901560 -60.257258 276 39608ft 456kts
24-Sep-19 04:42 62.913909 -60.533694 276 39715ft 455kts
24-Sep-19 04:43 62.925720 -60.810317 276 39722ft 455kts
24-Sep-19 04:44 62.936987 -61.087195 275 39726ft 455kts
24-Sep-19 04:45 62.947707 -61.364190 275 39737ft 455kts
24-Sep-19 04:46 62.957918 -61.642251 275 39740ft 455kts
24-Sep-19 04:47 62.967548 -61.919541 275 39742ft 455kts
24-Sep-19 04:48 62.976623 -62.196648 275 39742ft 454kts
24-Sep-19 04:49 62.985161 -62.473693 274 39741ft 454kts
24-Sep-19 04:50 62.993161 -62.750520 274 39741ft 453kts
24-Sep-19 04:51 63.006235 -63.025891 283 39741ft 452kts
24-Sep-19 04:52 63.043134 -63.290305 289 39740ft 452kts
24-Sep-19 04:53 63.084531 -63.552658 289 39739ft 452kts
24-Sep-19 04:54 63.125350 -63.814886 289 39739ft 451kts
24-Sep-19 04:55 63.165321 -64.077948 288 39738ft 451kts
24-Sep-19 04:56 63.204508 -64.341292 288 39739ft 450kts
24-Sep-19 04:57 63.243058 -64.605060 288 39739ft 449kts
24-Sep-19 04:58 63.281041 -64.869313 287 39740ft 449kts
24-Sep-19 04:59 63.318488 -65.134094 287 39741ft 449kts
24-Sep-19 05:00 63.354185 -65.390570 287 38928ft 447kts
24-Sep-19 05:01 63.383085 -65.601358 287 36550ft 436kts
24-Sep-19 05:02 63.417437 -65.855651 287 33556ft 426kts
24-Sep-19 05:03 63.444844 -66.113390 282 30555ft 420kts
24-Sep-19 05:04 63.465582 -66.369583 281 27561ft 423kts
24-Sep-19 05:05 63.485964 -66.623306 281 24611ft 418kts
24-Sep-19 05:06 63.506465 -66.876011 281 21613ft 406kts
24-Sep-19 05:07 63.526316 -67.120073 281 18614ft 390kts
24-Sep-19 05:08 63.545713 -67.354041 281 15617ft 374kts
24-Sep-19 05:09 63.565299 -67.578047 281 12620ft 358kts
24-Sep-19 05:10 63.585024 -67.792635 281 9827ft 344kts
24-Sep-19 05:11 63.605561 -67.991784 285 9817ft 300kts
24-Sep-19 05:12 63.625202 -68.149128 285 8660ft 247kts
24-Sep-19 05:13 63.643306 -68.290454 287 5969ft 227kts
24-Sep-19 05:14 63.678969 -68.383362 317 2988ft 171kts
24-Sep-19 05:15 63.705484 -68.443402 312 1971ft 136kts
24-Sep-19 05:16 63.737160 -68.512769 315 571ft 143kts
24-Sep-19 05:17 63.753897 -68.550239 315 115ft 34kts
24-Sep-19 05:18 63.757582 -68.547905 25 115ft 7kts
24-Sep-19 05:19 63.757497 -68.546662 140 115ft 0kts
24-Sep-19 05:20 63.757497 -68.546662 140 115ft 0kts
24-Sep-19 05:21 63.757497 -68.546662 140 115ft 0kts
24-Sep-19 05:22 63.757497 -68.546662 140 115ft 0kts
24-Sep-19 05:23 63.757497 -68.546662 140 115ft 0kts
24-Sep-19 05:24 63.757497 -68.546662 140 115ft 0kts
24-Sep-19 05:25 63.757497 -68.546662 140 115ft 0kts
24-Sep-19 05:26 63.757497 -68.546662 140 115ft 0kts
24-Sep-19 05:27 63.757497 -68.546662 140 115ft 0kts
24-Sep-19 05:28 63.757497 -68.546662 140 115ft 0kts
24-Sep-19 05:29 63.757497 -68.546662 140 115ft 0kts
24-Sep-19 05:30 63.757497 -68.546662 140 115ft 0kts
24-Sep-19 05:31 63.757497 -68.546662 140 115ft 0kts

Navigation Log

Ident Type
Flight plan parsing failed, navigation log unavailable